createdAt,value
2019-01-03T00:00:40.655Z,3.33
2019-01-03T00:03:16.935Z,4.43
2019-01-03T00:06:03.434Z,4.83
2019-01-03T00:11:41.278Z,5.67
2019-01-03T00:14:27.679Z,3.93
2019-01-03T00:49:09.458Z,7.57
2019-01-03T00:51:54.744Z,2.67
2019-01-03T00:54:41.717Z,9.07
2019-01-03T00:57:21.469Z,5.70
2019-01-03T00:59:57.318Z,1.47
2019-01-03T01:02:46.382Z,3.40
2019-01-03T01:05:33.307Z,3.97
2019-01-03T01:08:18.992Z,1.63
2019-01-03T01:10:49.405Z,1.37
2019-01-03T01:13:25.597Z,7.07
2019-01-03T01:16:01.621Z,3.97
2019-01-03T01:18:32.104Z,1.27
2019-01-03T01:21:08.387Z,2.10
2019-01-03T01:23:38.847Z,4.97
2019-01-03T01:26:11.971Z,5.17
2019-01-03T01:28:45.092Z,3.53
2019-01-03T01:31:27.941Z,5.47
2019-01-03T01:34:01.048Z,3.17
2019-01-03T01:36:49.371Z,3.00
2019-01-03T01:39:22.805Z,5.50
2019-01-03T01:42:05.586Z,2.13
2019-01-03T01:44:53.902Z,4.47
2019-01-03T01:47:27.611Z,2.60
2019-01-03T01:50:14.227Z,7.40
2019-01-03T01:52:44.823Z,8.53
2019-01-03T01:55:15.072Z,5.63
2019-01-03T02:03:35.423Z,5.67
2019-01-03T02:06:17.565Z,4.77
2019-01-03T02:09:04.458Z,2.67
2019-01-03T02:17:28.467Z,8.30
2019-01-03T02:20:15.560Z,4.83
2019-01-03T02:23:00.764Z,2.87
2019-01-03T02:25:40.678Z,1.93
2019-01-03T02:31:02.104Z,4.87
2019-01-03T05:23:57.022Z,5.07
2019-01-03T05:26:41.584Z,5.77
2019-01-03T05:29:28.126Z,5.77
2019-01-03T05:32:10.497Z,3.20
2019-01-03T05:34:56.948Z,3.40
2019-01-03T05:37:43.227Z,2.80
2019-01-03T05:40:19.148Z,4.60
2019-01-03T05:42:49.278Z,0.93
2019-01-03T05:48:17.587Z,4.80
2019-01-03T05:50:47.640Z,7.10
2019-01-03T05:53:17.832Z,5.17
2019-01-03T05:55:47.912Z,1.87
2019-01-03T06:02:01.616Z,2.93
2019-01-03T06:04:47.881Z,3.30
2019-01-03T08:26:03.103Z,3.83
2019-01-03T08:28:39.275Z,5.00
2019-01-03T08:31:24.252Z,4.33
2019-01-03T08:34:06.657Z,5.53
2019-01-03T08:36:51.934Z,3.57
2019-01-03T08:39:37.516Z,8.30
2019-01-03T08:42:07.612Z,4.67
2019-01-03T08:44:55.879Z,6.60
2019-01-03T08:47:41.533Z,4.17
2019-01-03T08:50:11.648Z,4.53
2019-01-03T08:52:58.390Z,3.37
2019-01-03T08:55:28.506Z,5.57
2019-01-03T08:58:04.784Z,3.00
2019-01-03T09:00:38.081Z,3.53
2019-01-03T09:03:24.859Z,3.23
2019-01-03T09:06:03.814Z,6.10
2019-01-03T09:08:50.246Z,3.33
2019-01-03T09:11:26.231Z,2.23
2019-01-03T09:14:14.760Z,9.00
2019-01-03T09:17:01.158Z,7.47
2019-01-03T09:19:37.322Z,4.03
2019-01-03T09:48:09.321Z,3.23
2019-01-03T09:50:38.116Z,7.37
2019-01-03T09:53:06.998Z,5.80
2019-01-03T09:55:35.978Z,5.20
2019-01-03T09:58:04.854Z,4.77
2019-01-03T10:00:33.756Z,3.50
2019-01-03T10:03:02.547Z,5.17
2019-01-03T10:05:31.596Z,6.13
2019-01-03T10:08:00.847Z,4.07
2019-01-03T10:10:29.473Z,3.40
2019-01-03T10:42:29.145Z,4.43
2019-01-03T11:11:02.165Z,5.93
2019-01-03T11:13:31.414Z,6.63
2019-01-03T11:16:00.540Z,14.43
2019-01-03T11:18:29.411Z,4.10
2019-01-03T11:20:59.430Z,3.93
2019-01-03T11:23:28.471Z,5.47
2019-01-03T11:25:57.107Z,6.57
2019-01-03T11:28:26.182Z,3.80
2019-01-03T11:30:55.077Z,4.07
2019-01-03T11:33:23.980Z,6.50
2019-01-03T11:35:53.292Z,2.53
2019-01-03T11:38:21.980Z,3.40
2019-01-03T11:40:51.242Z,2.13
2019-01-03T11:43:20.262Z,2.87
2019-01-03T11:45:49.091Z,2.60
2019-01-03T11:48:18.125Z,6.03
2019-01-03T11:50:46.671Z,2.63
2019-01-03T11:53:15.163Z,1.87
2019-01-03T11:55:44.522Z,3.07
2019-01-03T11:58:14.106Z,3.67
2019-01-03T12:00:42.884Z,2.87
2019-01-03T12:03:12.109Z,3.27
2019-01-03T12:05:41.613Z,6.90
2019-01-03T12:08:10.272Z,5.53
2019-01-03T12:10:39.457Z,2.97
2019-01-03T12:13:08.630Z,3.03
2019-01-03T12:15:37.464Z,1.93
2019-01-03T12:18:08.500Z,6.00
2019-01-03T12:20:37.283Z,2.90
2019-01-03T12:23:06.192Z,2.53
2019-01-03T12:25:35.266Z,4.37
2019-01-03T12:28:04.198Z,3.33
2019-01-03T12:30:32.990Z,2.23
2019-01-03T12:33:02.009Z,5.00
2019-01-03T12:35:32.636Z,3.70
2019-01-03T12:38:01.469Z,3.70
2019-01-03T12:40:30.355Z,4.20
2019-01-03T12:42:59.527Z,4.13
2019-01-03T12:45:29.056Z,1.97
2019-01-03T12:47:58.159Z,5.50
2019-01-03T12:50:26.802Z,2.03
2019-01-03T12:52:56.302Z,2.53
2019-01-03T12:55:25.072Z,7.33
2019-01-03T12:57:53.897Z,12.03
2019-01-03T13:00:23.291Z,10.77
2019-01-03T13:02:52.177Z,5.10
2019-01-03T13:05:20.892Z,7.03
2019-01-03T13:07:49.409Z,4.37
2019-01-03T13:10:18.265Z,5.50
2019-01-03T13:12:47.500Z,4.23
2019-01-03T13:15:18.197Z,3.10
2019-01-03T13:17:47.287Z,3.83
2019-01-03T13:20:16.160Z,6.73
2019-01-03T13:22:45.663Z,12.73
2019-01-03T13:25:14.283Z,12.70
2019-01-03T13:27:43.482Z,31.77
2019-01-03T13:30:12.003Z,23.13
2019-01-03T13:32:40.800Z,25.13
2019-01-03T13:35:09.709Z,20.60
2019-01-03T13:37:38.927Z,15.63
2019-01-03T13:40:08.356Z,29.03
2019-01-03T13:42:36.986Z,74.87
2019-01-03T13:45:07.912Z,27.03
2019-01-03T13:47:36.925Z,32.67
2019-01-03T13:50:07.464Z,25.03
2019-01-03T13:52:36.922Z,14.17
2019-01-03T13:55:05.982Z,14.60
2019-01-03T13:57:34.784Z,22.03
2019-01-03T14:00:03.399Z,17.40
2019-01-03T14:02:31.843Z,15.60
2019-01-03T14:05:00.327Z,4.47
2019-01-03T14:07:28.840Z,22.30
2019-01-03T14:09:58.034Z,17.67
2019-01-03T14:12:27.399Z,15.80
2019-01-03T14:14:56.500Z,8.20
2019-01-03T14:17:25.490Z,17.27
2019-01-03T14:19:54.575Z,22.00
2019-01-03T14:22:23.692Z,16.47
2019-01-03T14:24:52.405Z,8.57
2019-01-03T14:27:21.656Z,17.60
2019-01-03T14:29:50.642Z,11.60
2019-01-03T14:32:19.410Z,11.57
2019-01-03T14:34:48.492Z,13.27
2019-01-03T14:37:17.389Z,8.97
2019-01-03T14:39:46.397Z,9.23
2019-01-03T14:42:15.461Z,11.00
2019-01-03T14:44:44.359Z,4.87
2019-01-03T14:47:13.752Z,7.27
2019-01-03T14:49:42.977Z,4.60
2019-01-03T14:52:11.537Z,8.57
2019-01-03T14:54:40.445Z,6.27
2019-01-03T14:57:09.625Z,9.87
2019-01-03T14:59:38.647Z,3.63
2019-01-03T15:02:07.781Z,3.37
2019-01-03T15:04:36.872Z,4.53
2019-01-03T15:07:05.682Z,7.07
2019-01-03T15:09:34.377Z,5.80
2019-01-03T15:12:03.294Z,8.77
2019-01-03T15:14:32.447Z,6.80
2019-01-03T15:17:02.891Z,4.60
2019-01-03T15:19:31.591Z,12.17
2019-01-03T15:22:00.802Z,3.70
2019-01-03T15:24:29.536Z,2.57
2019-01-03T15:26:58.841Z,4.73
2019-01-03T15:31:58.132Z,13.03
2019-01-03T15:34:27.003Z,47.60
2019-01-03T15:36:55.635Z,13.20
2019-01-03T15:39:24.848Z,11.20
2019-01-03T15:44:57.840Z,4.93
2019-01-03T15:47:27.012Z,13.33
2019-01-03T15:49:56.148Z,5.00
2019-01-03T15:52:25.026Z,3.70
2019-01-03T15:54:54.493Z,4.57
2019-01-03T15:57:23.142Z,4.30
2019-01-03T15:59:51.941Z,3.97
2019-01-03T16:02:20.886Z,4.30
2019-01-03T16:04:49.925Z,2.73
2019-01-03T16:07:18.743Z,5.87
2019-01-03T16:09:47.806Z,6.20
2019-01-03T16:12:16.288Z,6.33
2019-01-03T16:14:44.974Z,4.77
2019-01-03T16:17:13.461Z,3.60
2019-01-03T16:19:41.941Z,8.97
2019-01-03T16:22:10.530Z,4.97
2019-01-03T16:24:39.005Z,9.50
2019-01-03T16:27:09.448Z,11.13
2019-01-03T16:29:38.320Z,7.77
2019-01-03T16:32:07.313Z,16.97
2019-01-03T16:34:36.289Z,18.43
2019-01-03T16:37:05.288Z,11.87
2019-01-03T16:39:34.088Z,9.17
2019-01-03T16:42:03.256Z,10.83
2019-01-03T16:44:32.176Z,10.07
2019-01-03T16:47:01.340Z,8.30
2019-01-03T16:49:30.781Z,6.37
2019-01-03T16:51:59.808Z,4.83
2019-01-03T16:54:30.294Z,6.17
2019-01-03T16:56:59.497Z,2.73
2019-01-03T16:59:28.456Z,3.47
2019-01-03T17:01:57.375Z,12.93
2019-01-03T17:04:26.196Z,7.13
2019-01-03T17:06:54.981Z,10.83
2019-01-03T17:09:23.965Z,11.63
2019-01-03T17:11:52.910Z,9.00
2019-01-03T17:14:21.668Z,21.37
2019-01-03T17:16:50.263Z,15.33
2019-01-03T17:19:19.437Z,24.30
2019-01-03T17:21:48.121Z,22.40
2019-01-03T17:24:17.182Z,25.60
2019-01-03T17:26:45.941Z,32.80
2019-01-03T17:29:15.103Z,32.97
2019-01-03T17:31:43.931Z,29.40
2019-01-03T17:34:12.656Z,30.33
2019-01-03T17:36:41.491Z,29.77
2019-01-03T17:39:10.449Z,25.47
2019-01-03T17:41:39.254Z,20.33
2019-01-03T17:44:08.148Z,7.13
2019-01-03T17:46:37.280Z,6.43
2019-01-03T17:49:06.348Z,8.43
2019-01-03T17:51:34.913Z,5.30
2019-01-03T17:54:04.238Z,12.17
2019-01-03T17:56:33.191Z,5.40
2019-01-03T17:59:02.300Z,11.60
2019-01-03T18:01:31.503Z,6.47
2019-01-03T18:04:00.026Z,11.33
2019-01-03T18:06:29.087Z,4.67
2019-01-03T18:08:58.331Z,9.03
2019-01-03T18:11:27.040Z,8.67
2019-01-03T18:13:55.709Z,4.53
2019-01-03T18:16:24.227Z,3.93
2019-01-03T18:18:52.912Z,4.93
2019-01-03T18:21:27.746Z,4.80
2019-01-03T18:23:56.016Z,4.13
2019-01-03T18:26:24.493Z,5.10
2019-01-03T18:28:53.077Z,2.77
2019-01-03T18:31:21.662Z,7.17
2019-01-03T18:33:50.139Z,6.33
2019-01-03T18:36:18.726Z,3.63
2019-01-03T18:38:47.309Z,5.37
2019-01-03T18:41:15.859Z,4.97
2019-01-03T18:43:44.829Z,10.43
2019-01-03T18:46:13.889Z,16.13
2019-01-03T18:48:43.479Z,9.43
2019-01-03T18:51:12.252Z,5.70
2019-01-03T18:53:41.586Z,7.00
2019-01-03T18:56:11.348Z,8.23
2019-01-03T18:58:40.708Z,14.97
2019-01-03T19:01:10.375Z,11.03
2019-01-03T19:03:39.080Z,5.37
2019-01-03T19:06:08.629Z,9.53
2019-01-03T19:08:38.278Z,5.57
2019-01-03T19:11:08.147Z,4.50
2019-01-03T19:13:37.871Z,5.93
2019-01-03T19:16:07.902Z,6.10
2019-01-03T19:18:38.128Z,6.80
2019-01-03T19:21:07.148Z,7.47
2019-01-03T19:23:37.107Z,7.63
2019-01-03T19:26:06.781Z,10.07
2019-01-03T19:28:36.006Z,5.67
2019-01-03T19:31:05.783Z,5.33
2019-01-03T19:33:35.769Z,7.10
2019-01-03T19:36:06.053Z,6.70
2019-01-03T19:38:35.747Z,9.27
2019-01-03T19:41:06.316Z,14.17
2019-01-03T19:43:36.278Z,13.43
2019-01-03T19:46:06.293Z,19.17
2019-01-03T19:48:36.121Z,12.90
2019-01-03T19:51:06.309Z,8.07
2019-01-03T19:53:36.129Z,8.03
2019-01-03T19:56:05.987Z,14.37
2019-01-03T19:58:35.994Z,11.13
2019-01-03T20:01:06.188Z,17.83
2019-01-03T20:03:36.320Z,11.17
2019-01-03T20:06:06.086Z,11.43
2019-01-03T20:08:36.251Z,9.00
2019-01-03T20:11:06.083Z,14.53
2019-01-03T20:13:36.248Z,9.97
2019-01-03T20:16:06.387Z,12.47
2019-01-03T20:18:36.282Z,9.20
2019-01-03T20:21:06.179Z,8.37
2019-01-03T20:23:36.035Z,11.60
2019-01-03T20:26:06.271Z,8.40
2019-01-03T20:28:36.460Z,10.03
2019-01-03T20:31:06.390Z,9.33
2019-01-03T20:33:36.109Z,7.57
2019-01-03T20:36:06.299Z,6.73
2019-01-03T20:38:36.421Z,9.83
2019-01-03T20:41:06.378Z,7.43
2019-01-03T20:43:39.238Z,6.60
2019-01-03T20:46:07.779Z,9.03
2019-01-03T20:48:38.002Z,5.30
2019-01-03T20:51:09.394Z,8.43
2019-01-03T20:53:39.447Z,6.40
2019-01-03T20:56:10.751Z,7.37
2019-01-03T20:58:40.643Z,4.63
2019-01-03T21:01:10.896Z,12.73
2019-01-03T21:03:40.989Z,7.33
2019-01-03T21:06:11.179Z,9.83
2019-01-03T21:08:40.809Z,6.97
2019-01-03T21:11:09.780Z,16.47
2019-01-03T21:13:39.602Z,5.30
2019-01-03T21:16:09.665Z,8.33
2019-01-03T21:18:39.837Z,10.23
2019-01-03T21:27:11.306Z,7.60
2019-01-03T21:29:40.926Z,5.00
2019-01-03T21:38:22.119Z,7.70
2019-01-03T21:40:51.035Z,4.57
2019-01-03T21:43:20.065Z,5.57
2019-01-03T21:45:49.299Z,4.83
2019-01-03T21:53:57.094Z,4.37
2019-01-03T21:56:25.853Z,3.93
2019-01-03T21:58:54.879Z,11.27
2019-01-03T22:01:23.520Z,3.70
2019-01-03T22:03:52.320Z,8.70
2019-01-03T22:06:21.194Z,7.10
2019-01-03T22:08:49.882Z,6.03
2019-01-03T22:11:18.333Z,4.20
2019-01-03T22:13:46.805Z,5.27
2019-01-03T22:16:15.327Z,4.80
2019-01-03T22:18:43.916Z,3.37
2019-01-03T22:21:12.398Z,4.07
2019-01-03T22:23:40.859Z,10.83
2019-01-03T22:26:09.324Z,4.17
2019-01-03T22:28:37.849Z,6.37
2019-01-03T22:34:08.112Z,8.23
2019-01-03T22:36:36.604Z,6.13
2019-01-03T22:39:05.425Z,6.30
2019-01-03T22:41:33.871Z,5.70
2019-01-03T22:44:02.490Z,7.23
2019-01-03T22:46:30.970Z,5.90
2019-01-03T22:48:59.417Z,5.00
2019-01-03T22:51:27.933Z,6.20
2019-01-03T22:53:56.391Z,8.90
2019-01-03T22:56:24.891Z,7.87
2019-01-03T22:58:53.374Z,6.70
2019-01-03T23:01:21.960Z,11.23
2019-01-03T23:03:50.541Z,6.43
2019-01-03T23:06:19.126Z,5.23
2019-01-03T23:08:47.602Z,8.50
2019-01-03T23:11:16.188Z,7.20
2019-01-03T23:13:44.665Z,8.63
2019-01-03T23:16:13.069Z,6.23
2019-01-03T23:18:41.631Z,5.93
2019-01-03T23:21:10.020Z,6.10
2019-01-03T23:23:38.671Z,6.93
2019-01-03T23:26:07.382Z,7.93
2019-01-03T23:28:35.823Z,10.53
2019-01-03T23:31:04.272Z,7.47
2019-01-03T23:33:32.787Z,8.27
2019-01-03T23:36:01.221Z,7.97
2019-01-03T23:38:29.759Z,7.67
2019-01-03T23:40:58.262Z,7.17
2019-01-03T23:43:26.847Z,10.20
2019-01-03T23:45:55.328Z,9.57
2019-01-03T23:48:23.808Z,7.77
2019-01-03T23:50:52.494Z,9.93
2019-01-03T23:53:20.941Z,8.10
2019-01-03T23:55:49.523Z,10.70
2019-01-03T23:58:18.011Z,5.57
